Weather at Ponciano Arriaga International Airport

Public forecast

Using degrees Celsius for public forecast. Weather courtesy of forecast.io.

Current aviation weather report (METAR) for Ponciano Arriaga International Airport

Retrieved 2022/01/21 07:45 UTC (54 minutes ago):

MMSP 210745Z 00000KT 5SM SCT090 BKN230 09/08 A3021 RMK 8/038 SC

Aviation forecast (TAF) for Ponciano Arriaga International Airport

Retrieved 2022/01/21 06:06 UTC (3 hours ago):

TAF MMSP 210500Z 2106/2212 04005KT 6SM HZ SCT020 BKN100 OVC230 TX22/2121Z TN06/2112Z FM211000 33008KT 3SM BR BKN015 OVC080 TEMPO 2111/2115 1SM BR DZ BKN005 OVC010 FM211600 03005KT 5SM HZ BKN020 BKN100 OVC230 FM211800 03012KT 6SM HZ BKN020 BKN100 OVC230 FM220300 03005KT 6SM HZ SCT015 BKN100 BKN230